createdAt,value
2022-08-19T00:02:12.600Z,23.50
2022-08-19T00:04:39.512Z,23.51
2022-08-19T00:07:07.623Z,23.48
2022-08-19T00:09:35.038Z,23.39
2022-08-19T00:12:02.895Z,23.38
2022-08-19T00:14:33.036Z,23.32
2022-08-19T00:17:00.763Z,23.30
2022-08-19T00:19:27.880Z,23.21
2022-08-19T00:21:55.547Z,23.17
2022-08-19T00:24:22.356Z,23.14
2022-08-19T00:26:49.757Z,23.14
2022-08-19T00:29:19.219Z,23.08
2022-08-19T00:31:46.704Z,22.94
2022-08-19T00:34:14.880Z,22.94
2022-08-19T00:36:42.256Z,22.96
2022-08-19T00:39:09.676Z,22.96
2022-08-19T00:41:36.939Z,22.95
2022-08-19T00:44:06.581Z,22.94
2022-08-19T00:46:34.501Z,22.79
2022-08-19T00:49:07.878Z,22.83
2022-08-19T00:51:35.767Z,22.86
2022-08-19T00:54:03.636Z,22.87
2022-08-19T00:56:32.014Z,22.91
2022-08-19T00:58:59.847Z,22.95
2022-08-19T01:01:27.209Z,22.94
2022-08-19T01:03:58.433Z,22.93
2022-08-19T01:06:27.227Z,22.94
2022-08-19T01:08:55.959Z,22.93
2022-08-19T01:11:23.028Z,22.90
2022-08-19T01:13:51.302Z,22.83
2022-08-19T01:16:21.803Z,22.74
2022-08-19T01:18:50.124Z,22.64
2022-08-19T01:21:46.100Z,22.57
2022-08-19T01:24:12.896Z,22.48
2022-08-19T01:26:42.776Z,22.46
2022-08-19T01:29:10.779Z,22.44
2022-08-19T01:31:40.759Z,22.47
2022-08-19T01:34:08.318Z,22.46
2022-08-19T01:36:50.290Z,22.41
2022-08-19T01:39:21.865Z,22.35
2022-08-19T01:41:50.026Z,22.34
2022-08-19T01:44:19.347Z,22.33
2022-08-19T01:46:48.923Z,22.33
2022-08-19T01:49:18.597Z,22.33
2022-08-19T01:51:45.824Z,22.33
2022-08-19T01:54:23.300Z,22.31
2022-08-19T01:57:01.109Z,22.29
2022-08-19T01:59:28.896Z,22.25
2022-08-19T02:01:56.207Z,22.27
2022-08-19T02:04:24.446Z,22.29
2022-08-19T02:06:51.567Z,22.32
2022-08-19T02:09:18.437Z,22.30
2022-08-19T02:11:45.460Z,22.26
2022-08-19T02:14:12.369Z,22.24
2022-08-19T02:16:39.515Z,22.26
2022-08-19T02:19:06.408Z,22.27
2022-08-19T02:21:35.245Z,22.26
2022-08-19T02:24:02.235Z,22.22
2022-08-19T02:26:29.369Z,22.10
2022-08-19T02:28:57.530Z,22.09
2022-08-19T02:31:26.269Z,22.09
2022-08-19T02:33:56.792Z,22.00
2022-08-19T02:36:25.874Z,21.95
2022-08-19T02:38:55.041Z,21.85
2022-08-19T02:41:32.788Z,21.69
2022-08-19T02:44:27.599Z,21.77
2022-08-19T02:46:51.736Z,21.80
2022-08-19T02:49:20.919Z,21.80
2022-08-19T02:51:48.205Z,21.77
2022-08-19T02:54:16.232Z,21.73
2022-08-19T02:56:45.115Z,21.71
2022-08-19T02:59:12.793Z,21.70
2022-08-19T03:01:42.186Z,21.74
2022-08-19T03:04:12.401Z,21.77
2022-08-19T03:06:42.469Z,21.81
2022-08-19T03:09:10.129Z,21.77
2022-08-19T03:11:37.547Z,21.71
2022-08-19T03:14:10.415Z,21.70
2022-08-19T03:16:49.017Z,21.76
2022-08-19T03:19:18.923Z,21.79
2022-08-19T03:21:46.877Z,21.78
2022-08-19T03:24:15.267Z,21.79
2022-08-19T03:26:45.609Z,21.81
2022-08-19T03:29:13.348Z,21.73
2022-08-19T03:31:50.931Z,21.68
2022-08-19T03:34:28.948Z,21.73
2022-08-19T03:36:58.632Z,21.70
2022-08-19T03:39:26.410Z,21.56
2022-08-19T03:42:32.808Z,21.55
2022-08-19T03:44:45.680Z,21.55
2022-08-19T03:47:17.136Z,21.64
2022-08-19T03:49:45.077Z,21.73
2022-08-19T03:52:11.972Z,21.88
2022-08-19T03:54:39.508Z,21.89
2022-08-19T03:57:07.351Z,21.91
2022-08-19T03:59:37.304Z,21.90
2022-08-19T04:02:10.381Z,21.94
2022-08-19T04:04:44.246Z,22.05
2022-08-19T04:07:13.957Z,22.10
2022-08-19T04:09:41.166Z,22.14
2022-08-19T04:12:09.707Z,22.11
2022-08-19T04:14:36.689Z,22.01
2022-08-19T04:17:05.890Z,21.98
2022-08-19T04:19:35.613Z,22.02
2022-08-19T04:22:02.506Z,22.00
2022-08-19T04:24:29.533Z,22.16
2022-08-19T04:26:57.176Z,22.24
2022-08-19T04:29:26.510Z,22.31
2022-08-19T04:31:55.666Z,22.23
2022-08-19T04:34:25.619Z,22.26
2022-08-19T04:36:55.152Z,22.29
2022-08-19T04:39:45.904Z,22.37
2022-08-19T04:42:31.735Z,22.54
2022-08-19T04:44:59.766Z,22.72
2022-08-19T04:47:47.424Z,22.67
2022-08-19T04:50:14.894Z,22.64
2022-08-19T04:52:46.956Z,22.81
2022-08-19T04:55:14.335Z,22.78
2022-08-19T04:57:41.366Z,22.90
2022-08-19T05:00:10.229Z,22.99
2022-08-19T05:02:39.836Z,23.01
2022-08-19T05:05:10.319Z,22.96
2022-08-19T05:07:37.929Z,23.06
2022-08-19T05:10:07.014Z,23.22
2022-08-19T05:12:34.192Z,23.34
2022-08-19T05:15:01.833Z,23.48
2022-08-19T05:17:34.927Z,23.26
2022-08-19T05:20:25.175Z,23.22
2022-08-19T05:22:52.105Z,23.31
2022-08-19T05:25:21.761Z,23.45
2022-08-19T05:27:49.126Z,23.42
2022-08-19T05:30:16.630Z,23.46
2022-08-19T05:32:44.058Z,23.54
2022-08-19T05:35:11.762Z,23.58
2022-08-19T05:37:41.671Z,23.69
2022-08-19T05:40:12.332Z,23.86
2022-08-19T05:42:39.439Z,23.98
2022-08-19T05:45:08.881Z,24.10
2022-08-19T05:47:36.654Z,23.92
2022-08-19T05:50:09.499Z,23.74
2022-08-19T05:52:43.605Z,23.80
2022-08-19T05:55:11.570Z,23.96
2022-08-19T05:57:38.427Z,24.15
2022-08-19T06:00:10.957Z,24.42
2022-08-19T06:02:38.018Z,24.63
2022-08-19T06:05:08.333Z,24.75
2022-08-19T06:10:09.848Z,25.31
2022-08-19T06:12:39.047Z,25.50
2022-08-19T06:15:10.010Z,25.54
2022-08-19T06:17:37.355Z,25.75
2022-08-19T06:20:07.206Z,25.86
2022-08-19T06:22:41.755Z,25.63
2022-08-19T06:25:10.426Z,25.42
2022-08-19T06:27:48.324Z,25.36
2022-08-19T06:30:26.037Z,25.49
2022-08-19T06:32:52.936Z,25.43
2022-08-19T06:35:20.355Z,25.55
2022-08-19T06:37:48.093Z,25.53
2022-08-19T06:40:15.184Z,25.47
2022-08-19T06:42:45.240Z,25.37
2022-08-19T06:45:24.808Z,25.21
2022-08-19T06:47:57.040Z,25.01
2022-08-19T06:50:25.311Z,24.87
2022-08-19T06:52:52.652Z,24.80
2022-08-19T06:55:20.223Z,24.85
2022-08-19T06:57:47.558Z,24.81
2022-08-19T07:00:15.229Z,24.83
2022-08-19T07:02:48.182Z,24.94
2022-08-19T07:05:23.155Z,24.94
2022-08-19T07:07:51.116Z,24.98
2022-08-19T07:10:21.769Z,25.19
2022-08-19T07:12:50.169Z,25.35
2022-08-19T07:15:17.319Z,25.56
2022-08-19T07:17:45.780Z,25.87
2022-08-19T07:20:19.376Z,26.38
2022-08-19T07:22:46.565Z,26.74
2022-08-19T07:25:14.428Z,27.41
2022-08-19T07:27:41.670Z,28.89
2022-08-19T07:30:14.565Z,30.39
2022-08-19T07:32:44.020Z,31.17
2022-08-19T07:35:11.359Z,32.66
2022-08-19T07:37:39.259Z,33.60
2022-08-19T07:40:08.491Z,33.02
2022-08-19T07:42:38.389Z,33.28
2022-08-19T07:45:06.972Z,33.48
2022-08-19T07:47:49.884Z,33.96
2022-08-19T07:50:20.445Z,33.93
2022-08-19T07:52:50.953Z,33.44
2022-08-19T07:55:41.763Z,33.47
2022-08-19T07:58:09.333Z,34.15
2022-08-19T08:00:39.967Z,34.79
2022-08-19T08:03:06.985Z,35.64
2022-08-19T08:05:52.614Z,36.52
2022-08-19T08:08:44.336Z,37.29
2022-08-19T08:11:19.990Z,37.78
2022-08-19T08:14:01.137Z,36.35
2022-08-19T08:16:35.408Z,35.24
2022-08-19T08:19:25.686Z,35.82
2022-08-19T08:21:57.086Z,36.92
2022-08-19T08:24:28.782Z,37.33
2022-08-19T08:26:57.677Z,36.93
2022-08-19T08:29:25.997Z,36.57
2022-08-19T08:31:58.603Z,36.14
2022-08-19T08:34:27.498Z,34.67
2022-08-19T08:36:54.279Z,34.99
2022-08-19T08:39:22.518Z,35.10
2022-08-19T08:42:02.601Z,33.73
2022-08-19T08:44:37.256Z,32.20
2022-08-19T08:47:11.433Z,30.89
2022-08-19T08:49:45.430Z,30.14
2022-08-19T08:52:36.436Z,29.73
2022-08-19T08:55:12.521Z,29.34
2022-08-19T08:57:41.087Z,29.27
2022-08-19T09:00:16.207Z,29.81
2022-08-19T09:02:44.418Z,30.24
2022-08-19T09:05:16.331Z,30.15
2022-08-19T09:08:22.307Z,33.09
2022-08-19T09:10:55.580Z,35.20
2022-08-19T09:13:45.771Z,35.21
2022-08-19T09:16:22.022Z,35.02
2022-08-19T09:19:02.941Z,34.62
2022-08-19T09:21:33.448Z,34.63
2022-08-19T09:24:03.527Z,35.02
2022-08-19T09:26:47.326Z,37.28
2022-08-19T09:29:15.951Z,39.21
2022-08-19T09:31:44.980Z,39.67
2022-08-19T09:34:21.120Z,39.93
2022-08-19T09:36:54.632Z,40.76
2022-08-19T09:39:22.323Z,41.28
2022-08-19T09:41:51.062Z,39.69
2022-08-19T09:44:18.892Z,37.70
2022-08-19T09:46:48.323Z,35.09
2022-08-19T09:49:18.527Z,33.64
2022-08-19T09:51:50.837Z,32.76
2022-08-19T09:54:19.331Z,31.95
2022-08-19T09:56:51.201Z,31.47
2022-08-19T09:59:18.087Z,31.00
2022-08-19T10:01:45.011Z,30.54
2022-08-19T10:04:19.768Z,30.27
2022-08-19T10:06:51.863Z,29.88
2022-08-19T10:09:33.710Z,29.72
2022-08-19T10:12:03.152Z,29.49
2022-08-19T10:14:30.399Z,29.40
2022-08-19T10:16:57.652Z,29.27
2022-08-19T10:19:26.864Z,28.99
2022-08-19T10:21:55.544Z,29.02
2022-08-19T10:24:28.776Z,28.77
2022-08-19T10:26:57.207Z,28.56
2022-08-19T10:29:32.564Z,28.48
2022-08-19T10:32:09.706Z,28.31
2022-08-19T10:34:48.471Z,28.25
2022-08-19T10:37:23.836Z,28.17
2022-08-19T10:39:55.921Z,28.02
2022-08-19T10:42:22.887Z,28.05
2022-08-19T10:44:49.660Z,27.99
2022-08-19T10:47:25.412Z,27.90
2022-08-19T10:50:14.939Z,28.15
2022-08-19T10:52:49.924Z,28.13
2022-08-19T10:55:42.149Z,27.84
2022-08-19T10:58:14.462Z,27.82
2022-08-19T11:00:43.639Z,27.96
2022-08-19T11:03:10.632Z,28.03
2022-08-19T11:05:43.829Z,28.13
2022-08-19T11:08:22.634Z,28.05
2022-08-19T11:10:51.217Z,27.88
2022-08-19T11:13:18.073Z,27.93
2022-08-19T11:15:45.180Z,28.00
2022-08-19T11:18:13.378Z,27.91
2022-08-19T11:20:40.443Z,28.02
2022-08-19T11:23:07.564Z,28.00
2022-08-19T11:25:35.602Z,27.85
2022-08-19T11:28:02.401Z,27.83
2022-08-19T11:30:29.265Z,27.89
2022-08-19T11:32:56.066Z,27.92
2022-08-19T11:35:25.332Z,27.96
2022-08-19T11:37:52.041Z,27.73
2022-08-19T11:40:19.254Z,27.55
2022-08-19T11:42:58.606Z,27.47
2022-08-19T11:45:25.861Z,27.35
2022-08-19T11:47:54.575Z,27.32
2022-08-19T11:50:21.834Z,27.40
2022-08-19T11:52:50.664Z,27.51
2022-08-19T11:55:17.655Z,27.56
2022-08-19T11:57:44.817Z,27.51
2022-08-19T12:00:14.061Z,27.46
2022-08-19T12:02:41.206Z,27.34
2022-08-19T12:05:12.507Z,27.48
2022-08-19T12:07:40.862Z,27.47
2022-08-19T12:10:08.484Z,27.34
2022-08-19T12:12:35.658Z,27.26
2022-08-19T12:15:03.475Z,27.14
2022-08-19T12:17:31.928Z,26.99
2022-08-19T12:19:58.948Z,26.95
2022-08-19T12:22:25.934Z,26.85
2022-08-19T12:24:54.386Z,26.79
2022-08-19T12:27:32.395Z,26.83
2022-08-19T12:30:12.123Z,26.92
2022-08-19T12:32:39.027Z,26.86
2022-08-19T12:35:07.097Z,26.76
2022-08-19T12:37:34.761Z,26.59
2022-08-19T12:40:02.178Z,26.48
2022-08-19T12:42:31.561Z,26.44
2022-08-19T12:44:58.543Z,26.55
2022-08-19T12:47:27.627Z,26.68
2022-08-19T12:49:56.047Z,26.78
2022-08-19T12:52:25.589Z,26.78
2022-08-19T12:54:54.567Z,26.52
2022-08-19T12:57:24.397Z,26.44
2022-08-19T13:00:13.020Z,26.40
2022-08-19T13:02:41.922Z,26.35
2022-08-19T13:05:12.327Z,26.37
2022-08-19T13:07:40.804Z,26.33
2022-08-19T13:10:10.313Z,26.27
2022-08-19T13:12:38.064Z,26.25
2022-08-19T13:15:10.600Z,26.21
2022-08-19T13:17:39.202Z,26.21
2022-08-19T13:20:09.250Z,26.21
2022-08-19T13:22:37.093Z,26.27
2022-08-19T13:25:07.866Z,26.29
2022-08-19T13:27:35.093Z,26.35
2022-08-19T13:30:22.791Z,26.42
2022-08-19T13:33:08.365Z,26.49
2022-08-19T13:35:35.439Z,26.56
2022-08-19T13:38:11.706Z,26.55
2022-08-19T13:40:44.451Z,26.56
2022-08-19T13:43:12.429Z,26.55
2022-08-19T13:45:51.085Z,26.48
2022-08-19T13:48:18.676Z,26.54
2022-08-19T13:50:48.521Z,26.62
2022-08-19T13:53:16.017Z,26.63
2022-08-19T13:55:45.914Z,26.59
2022-08-19T13:58:13.306Z,26.40
2022-08-19T14:00:45.334Z,26.39
2022-08-19T14:03:12.380Z,26.37
2022-08-19T14:05:40.282Z,26.36
2022-08-19T14:08:10.450Z,26.38
2022-08-19T14:10:37.509Z,26.37
2022-08-19T14:13:05.003Z,26.42
2022-08-19T14:16:17.620Z,26.40
2022-08-19T14:18:54.712Z,26.34
2022-08-19T14:21:24.701Z,26.32
2022-08-19T14:23:51.534Z,26.33
2022-08-19T14:26:20.402Z,26.28
2022-08-19T14:28:47.498Z,26.16
2022-08-19T14:31:20.240Z,26.08
2022-08-19T14:33:51.466Z,26.06
2022-08-19T14:36:19.409Z,26.02
2022-08-19T14:38:46.449Z,25.97
2022-08-19T14:41:20.363Z,25.95
2022-08-19T14:43:51.176Z,25.94
2022-08-19T14:46:23.467Z,25.87
2022-08-19T14:48:52.959Z,25.83
2022-08-19T14:51:22.032Z,25.83
2022-08-19T14:53:52.208Z,25.76
2022-08-19T14:56:23.147Z,25.77
2022-08-19T14:58:52.787Z,25.75
2022-08-19T15:01:22.140Z,25.69
2022-08-19T15:03:50.338Z,25.52
2022-08-19T15:06:17.284Z,25.52
2022-08-19T15:08:45.939Z,25.46
2022-08-19T15:11:16.829Z,25.41
2022-08-19T15:13:45.742Z,25.42
2022-08-19T15:16:18.132Z,25.50
2022-08-19T15:18:47.959Z,25.61
2022-08-19T15:21:17.635Z,25.50
2022-08-19T15:23:54.942Z,25.55
2022-08-19T15:26:21.901Z,25.58
2022-08-19T15:28:49.532Z,25.50
2022-08-19T15:31:28.079Z,25.45
2022-08-19T15:33:58.525Z,25.38
2022-08-19T15:36:27.245Z,25.38
2022-08-19T15:38:55.681Z,25.37
2022-08-19T15:41:25.503Z,25.42
2022-08-19T15:43:54.159Z,25.48
2022-08-19T15:46:24.119Z,25.45
2022-08-19T15:48:57.323Z,25.39
2022-08-19T15:51:28.994Z,25.35
2022-08-19T15:54:00.771Z,25.36
2022-08-19T15:56:58.009Z,25.34
2022-08-19T15:59:52.334Z,25.28
2022-08-19T16:02:39.289Z,25.25
2022-08-19T16:05:28.283Z,25.22
2022-08-19T16:07:55.351Z,25.17
2022-08-19T16:10:27.049Z,25.13
2022-08-19T16:12:56.769Z,25.03
2022-08-19T16:15:25.449Z,24.91
2022-08-19T16:17:56.791Z,24.85
2022-08-19T16:20:27.170Z,24.78
2022-08-19T16:22:54.515Z,24.72
2022-08-19T16:25:26.666Z,24.68
2022-08-19T16:28:07.808Z,24.65
2022-08-19T16:30:38.565Z,24.65
2022-08-19T16:33:06.096Z,24.63
2022-08-19T16:35:33.295Z,24.61
2022-08-19T16:38:00.738Z,24.64
2022-08-19T16:40:28.020Z,24.61
2022-08-19T16:42:54.987Z,24.57
2022-08-19T16:45:22.387Z,24.53
2022-08-19T16:47:51.712Z,24.49
2022-08-19T16:50:45.891Z,24.40
2022-08-19T16:53:09.808Z,24.36
2022-08-19T16:55:37.807Z,24.34
2022-08-19T16:58:07.692Z,24.33
2022-08-19T17:00:34.732Z,24.29
2022-08-19T17:03:14.963Z,24.28
2022-08-19T17:05:49.711Z,24.26
2022-08-19T17:08:18.663Z,24.25
2022-08-19T17:11:16.476Z,24.22
2022-08-19T17:13:34.018Z,24.20
2022-08-19T17:16:00.947Z,24.18
2022-08-19T17:18:39.886Z,24.16
2022-08-19T17:21:08.042Z,24.10
2022-08-19T17:23:43.030Z,24.07
2022-08-19T17:26:17.970Z,24.04
2022-08-19T17:28:49.831Z,23.99
2022-08-19T17:31:18.774Z,23.96
2022-08-19T17:33:48.168Z,23.96
2022-08-19T17:36:23.406Z,23.94
2022-08-19T17:38:51.503Z,23.93
2022-08-19T17:41:19.044Z,23.92
2022-08-19T17:43:45.932Z,23.91
2022-08-19T17:46:20.582Z,23.86
2022-08-19T17:48:52.763Z,23.85
2022-08-19T17:51:24.006Z,23.83
2022-08-19T17:53:53.455Z,23.79
2022-08-19T17:56:21.062Z,23.77
2022-08-19T17:58:57.765Z,23.77
2022-08-19T18:01:32.706Z,23.75
2022-08-19T18:04:12.958Z,23.71
2022-08-19T18:06:41.795Z,23.70
2022-08-19T18:09:13.907Z,23.65
2022-08-19T18:11:40.838Z,23.63
2022-08-19T18:14:07.656Z,23.62
2022-08-19T18:16:34.589Z,23.58
2022-08-19T18:19:01.548Z,23.58
2022-08-19T18:21:31.924Z,23.53
2022-08-19T18:24:01.738Z,23.49
2022-08-19T18:26:30.448Z,23.50
2022-08-19T18:28:57.528Z,23.49
2022-08-19T18:31:24.629Z,23.49
2022-08-19T18:33:52.808Z,23.45
2022-08-19T18:36:37.539Z,23.42
2022-08-19T18:39:26.123Z,23.38
2022-08-19T18:42:14.770Z,23.22
2022-08-19T18:45:00.496Z,23.26
2022-08-19T18:47:46.268Z,23.23
2022-08-19T18:50:13.797Z,23.21
2022-08-19T18:52:40.994Z,23.20
2022-08-19T18:55:08.543Z,23.19
2022-08-19T18:57:35.656Z,23.16
2022-08-19T19:00:04.599Z,23.10
2022-08-19T19:02:38.548Z,23.10
2022-08-19T19:05:07.773Z,23.04
2022-08-19T19:07:35.136Z,23.02
2022-08-19T19:10:02.340Z,23.01
2022-08-19T19:12:30.077Z,22.99
2022-08-19T19:14:58.792Z,22.97
2022-08-19T19:17:28.529Z,22.93
2022-08-19T19:19:55.352Z,22.79
2022-08-19T19:22:23.163Z,22.81
2022-08-19T19:24:50.898Z,22.81
2022-08-19T19:27:20.710Z,22.83
2022-08-19T19:29:52.184Z,22.82
2022-08-19T19:32:36.975Z,22.80
2022-08-19T19:35:06.687Z,22.76
2022-08-19T19:37:34.034Z,22.73
2022-08-19T19:40:01.134Z,22.71
2022-08-19T19:42:30.025Z,22.68
2022-08-19T19:44:56.903Z,22.67
2022-08-19T19:47:28.279Z,22.64
2022-08-19T19:50:14.849Z,22.61
2022-08-19T19:52:45.496Z,22.58
2022-08-19T19:55:18.238Z,22.55
2022-08-19T19:57:49.459Z,22.55
2022-08-19T20:00:19.110Z,22.53
2022-08-19T20:02:49.791Z,22.38
2022-08-19T20:05:18.402Z,22.40
2022-08-19T20:08:03.819Z,22.39
2022-08-19T20:10:32.390Z,22.36
2022-08-19T20:13:03.099Z,22.37
2022-08-19T20:15:32.329Z,22.31
2022-08-19T20:18:01.095Z,22.27
2022-08-19T20:20:28.420Z,22.25
2022-08-19T20:22:55.315Z,22.23
2022-08-19T20:25:22.491Z,22.22
2022-08-19T20:27:49.747Z,22.15
2022-08-19T20:30:20.455Z,22.21
2022-08-19T20:32:48.798Z,22.18
2022-08-19T20:35:18.969Z,22.16
2022-08-19T20:37:45.751Z,22.08
2022-08-19T20:40:13.959Z,22.09
2022-08-19T20:42:42.544Z,22.06
2022-08-19T20:45:29.395Z,22.08
2022-08-19T20:47:59.077Z,22.01
2022-08-19T20:50:26.286Z,22.02
2022-08-19T20:52:57.298Z,22.00
2022-08-19T20:55:24.271Z,21.97
2022-08-19T20:57:51.753Z,21.95
2022-08-19T21:00:19.177Z,21.94
2022-08-19T21:02:47.068Z,21.91
2022-08-19T21:05:13.941Z,21.89
2022-08-19T21:07:40.876Z,21.88
2022-08-19T21:10:08.317Z,21.87
2022-08-19T21:12:35.103Z,21.88
2022-08-19T21:15:02.090Z,21.88
2022-08-19T21:17:29.952Z,21.87
2022-08-19T21:19:56.710Z,21.86
2022-08-19T21:22:23.522Z,21.81
2022-08-19T21:24:50.421Z,21.81
2022-08-19T21:27:17.293Z,21.81
2022-08-19T21:29:44.163Z,21.76
2022-08-19T21:32:14.130Z,21.76
2022-08-19T21:34:43.838Z,21.74
2022-08-19T21:37:25.186Z,21.75
2022-08-19T21:39:53.371Z,21.62
2022-08-19T21:42:21.085Z,21.67
2022-08-19T21:44:47.965Z,21.68
2022-08-19T21:47:14.944Z,21.70
2022-08-19T21:49:42.180Z,21.68
2022-08-19T21:52:09.391Z,21.67
2022-08-19T21:54:38.272Z,21.65
2022-08-19T21:57:10.162Z,21.60
2022-08-19T21:59:43.794Z,21.55
2022-08-19T22:02:21.362Z,21.52
2022-08-19T22:04:55.127Z,21.47
2022-08-19T22:07:22.403Z,21.42
2022-08-19T22:09:50.700Z,21.43
2022-08-19T22:14:57.700Z,21.44
2022-08-19T22:17:27.772Z,21.47
2022-08-19T22:19:56.560Z,21.44
2022-08-19T22:22:30.794Z,21.47
2022-08-19T22:25:06.455Z,21.48
2022-08-19T22:27:33.344Z,21.52
2022-08-19T22:30:00.135Z,21.52
2022-08-19T22:32:28.546Z,21.52
2022-08-19T22:34:58.989Z,21.50
2022-08-19T22:37:27.376Z,21.40
2022-08-19T22:39:54.471Z,21.36
2022-08-19T22:42:22.576Z,21.34
2022-08-19T22:44:49.710Z,21.36
2022-08-19T22:47:17.424Z,21.36
2022-08-19T22:49:45.167Z,21.33
2022-08-19T22:52:17.743Z,21.27
2022-08-19T22:54:51.467Z,21.23
2022-08-19T22:57:19.927Z,21.21
2022-08-19T22:59:51.284Z,21.18
2022-08-19T23:02:23.887Z,21.18
2022-08-19T23:04:51.807Z,21.17
2022-08-19T23:07:23.535Z,21.13
2022-08-19T23:09:51.219Z,21.04
2022-08-19T23:12:31.530Z,20.99
2022-08-19T23:15:05.121Z,20.93
2022-08-19T23:17:32.284Z,20.81
2022-08-19T23:19:59.917Z,20.78
2022-08-19T23:22:26.888Z,20.74
2022-08-19T23:24:56.113Z,20.70
2022-08-19T23:27:41.702Z,20.63
2022-08-19T23:30:27.349Z,20.62
2022-08-19T23:33:01.808Z,20.57
2022-08-19T23:35:34.453Z,20.52
2022-08-19T23:38:01.382Z,20.43
2022-08-19T23:40:29.190Z,20.39
2022-08-19T23:42:56.590Z,20.38
2022-08-19T23:45:25.410Z,20.34
2022-08-19T23:47:53.714Z,20.29
2022-08-19T23:50:22.160Z,20.27
2022-08-19T23:52:52.438Z,20.29
2022-08-19T23:55:24.372Z,20.26
2022-08-19T23:57:51.892Z,20.19
